Time;durP1;ratioP1;P1;durP2;ratioP2;P2;SDS_P1;SDS_P2;PMS_P1;PMS_P2;Temp;Humidity;BMP_temperature;BMP_pressure;BME280_temperature;BME280_humidity;BME280_pressure;Samples;Min_cycle;Max_cycle;Signal;HPM_P1;HPM_P2
2022/03/24 00:00:57;;;;;;;28.83;13.38;;;;;;;4.90;47.67;101392.22;5569185;32;33864;-63
2022/03/24 00:04:00;;;;;;;29.77;12.05;;;;;;;4.88;48.22;101388.88;5569220;32;34029;-63
2022/03/24 00:07:04;;;;;;;31.23;12.95;;;;;;;4.83;48.78;101385.72;5569476;32;35226;-63
2022/03/24 00:10:08;;;;;;;29.33;13.40;;;;;;;4.73;49.00;101382.87;5569131;32;34108;-62
2022/03/24 00:13:11;;;;;;;35.55;15.18;;;;;;;4.69;49.77;101377.94;5569320;32;34847;-63
2022/03/24 00:16:15;;;;;;;43.30;14.57;;;;;;;4.60;49.90;101371.50;5569326;32;34625;-63
2022/03/24 00:19:19;;;;;;;36.42;14.27;;;;;;;4.49;50.41;101367.94;5569249;32;34617;-63
2022/03/24 00:22:22;;;;;;;36.08;14.48;;;;;;;4.40;50.94;101364.16;5568712;32;33977;-63
2022/03/24 00:25:24;;;;;;;34.80;14.95;;;;;;;4.38;51.04;101356.38;5569189;32;33999;-63
2022/03/24 00:28:27;;;;;;;33.70;13.57;;;;;;;4.32;51.46;101361.19;5568660;32;34411;-63
2022/03/24 00:31:30;;;;;;;30.52;13.43;;;;;;;4.28;51.25;101360.56;5568966;32;33992;-63
2022/03/24 00:34:33;;;;;;;27.00;13.02;;;;;;;4.25;51.15;101349.44;5568573;32;34449;-64
2022/03/24 00:37:36;;;;;;;35.85;14.65;;;;;;;4.20;51.04;101347.12;5568566;32;33876;-63
2022/03/24 00:40:39;;;;;;;26.52;13.85;;;;;;;4.16;51.07;101344.81;5554767;32;34463;-64
2022/03/24 00:43:42;;;;;;;24.25;12.18;;;;;;;4.15;50.70;101346.59;5568257;32;34212;-64
2022/03/24 00:46:47;;;;;;;28.90;12.82;;;;;;;4.15;50.34;101343.97;5568754;32;34560;-64
2022/03/24 00:49:50;;;;;;;31.60;12.98;;;;;;;4.14;50.46;101344.06;5568602;32;34049;-64
2022/03/24 00:52:54;;;;;;;42.38;13.75;;;;;;;4.18;50.92;101338.50;5570979;32;34533;-64
2022/03/24 00:55:59;;;;;;;28.87;13.35;;;;;;;4.19;51.40;101344.59;5571132;32;34226;-65
2022/03/24 00:59:02;;;;;;;32.13;13.55;;;;;;;4.08;51.39;101339.22;5571123;32;33943;-64
2022/03/24 01:02:09;;;;;;;28.02;11.82;;;;;;;4.03;51.44;101341.31;5571009;32;34561;-65
2022/03/24 01:05:13;;;;;;;27.37;11.52;;;;;;;4.01;51.37;101328.31;5571074;32;33962;-65
2022/03/24 01:08:17;;;;;;;24.65;11.40;;;;;;;4.04;51.17;101329.88;5557276;32;33945;-64
2022/03/24 01:11:20;;;;;;;24.17;12.10;;;;;;;4.11;51.32;101323.28;5570980;32;34086;-65
2022/03/24 01:14:23;;;;;;;27.20;13.05;;;;;;;4.10;51.59;101319.81;5557247;32;34085;-65
2022/03/24 01:17:26;;;;;;;34.45;12.52;;;;;;;4.05;52.16;101323.69;5557228;32;34190;-65
2022/03/24 01:20:30;;;;;;;32.33;12.02;;;;;;;4.01;52.78;101325.69;5571216;32;34656;-65
2022/03/24 01:23:33;;;;;;;32.70;12.63;;;;;;;3.91;52.82;101314.09;5557271;32;34020;-65
2022/03/24 01:26:36;;;;;;;28.60;12.65;;;;;;;3.96;52.83;101313.81;5571212;32;35150;-64
2022/03/24 01:29:39;;;;;;;25.75;12.65;;;;;;;4.00;53.08;101313.50;5570704;32;33914;-64
2022/03/24 01:32:42;;;;;;;28.10;12.13;;;;;;;3.91;53.03;101311.47;5570938;32;35327;-65
2022/03/24 01:35:45;;;;;;;24.67;12.18;;;;;;;3.97;53.27;101308.41;5570853;32;34016;-65
2022/03/24 01:38:47;;;;;;;24.35;12.35;;;;;;;3.84;53.69;101302.31;5570779;32;34026;-64
2022/03/24 01:41:51;;;;;;;23.20;11.50;;;;;;;3.73;54.44;101299.56;5570992;32;34628;-65
2022/03/24 01:44:57;;;;;;;25.25;11.00;;;;;;;3.65;54.63;101300.06;5570619;32;34514;-63
2022/03/24 01:48:02;;;;;;;25.92;11.50;;;;;;;3.60;54.90;101294.28;5570818;32;34294;-65
2022/03/24 01:51:04;;;;;;;24.40;11.90;;;;;;;3.53;54.98;101300.06;5570682;32;34034;-65
2022/03/24 01:54:07;;;;;;;24.42;10.27;;;;;;;3.49;55.88;101289.75;5570575;32;34102;-64
2022/03/24 01:57:11;;;;;;;30.30;11.43;;;;;;;3.39;55.70;101285.19;5570646;32;34339;-64
2022/03/24 02:00:15;;;;;;;24.45;10.80;;;;;;;3.34;55.96;101282.06;5570561;32;34021;-65
2022/03/24 02:03:19;;;;;;;26.02;10.65;;;;;;;3.22;56.24;101285.44;5569797;32;33984;-64
2022/03/24 02:06:22;;;;;;;23.30;11.02;;;;;;;3.12;56.60;101277.34;5570569;32;34196;-65
2022/03/24 02:09:25;;;;;;;23.98;10.98;;;;;;;3.05;57.21;101273.41;5570986;32;33989;-64
2022/03/24 02:12:27;;;;;;;24.17;11.27;;;;;;;3.01;57.81;101279.78;5570588;32;34069;-65
2022/03/24 02:15:32;;;;;;;32.28;12.60;;;;;;;3.22;58.91;101283.69;5570413;32;34826;-64
2022/03/24 02:18:35;;;;;;;27.33;13.02;;;;;;;3.10;59.34;101281.81;5556826;32;34686;-64
2022/03/24 02:21:39;;;;;;;29.98;13.43;;;;;;;3.05;60.97;101289.97;5570313;32;34643;-64
2022/03/24 02:24:43;;;;;;;30.12;13.62;;;;;;;3.04;61.47;101288.31;5570698;32;33885;-65
2022/03/24 02:27:52;;;;;;;30.48;13.62;;;;;;;3.05;62.93;101284.75;5556716;32;34120;-64
2022/03/24 02:30:55;;;;;;;38.38;13.60;;;;;;;3.03;63.06;101289.25;5570313;31;33905;-65
2022/03/24 02:34:37;;;;;;;31.45;13.93;;;;;;;2.83;64.08;101287.06;5556590;32;34090;-65
2022/03/24 02:37:23;;;;;;;29.80;14.43;;;;;;;2.78;64.43;101283.88;5570248;32;35214;-65
2022/03/24 02:40:26;;;;;;;39.28;14.77;;;;;;;2.70;65.28;101288.75;5570628;32;33955;-64
2022/03/24 02:43:29;;;;;;;32.63;15.23;;;;;;;2.66;65.69;101284.66;5570181;32;34192;-65
2022/03/24 02:46:32;;;;;;;37.65;15.82;;;;;;;2.60;65.63;101282.41;5570191;32;34111;-65
2022/03/24 02:49:35;;;;;;;38.08;15.50;;;;;;;2.54;66.01;101280.16;5570128;32;34708;-65
2022/03/24 02:52:38;;;;;;;37.13;15.70;;;;;;;2.54;66.18;101282.78;5570463;32;34058;-65
2022/03/24 02:55:41;;;;;;;38.38;16.95;;;;;;;2.50;66.71;101284.75;5570207;32;33974;-64
2022/03/24 02:58:43;;;;;;;40.17;18.58;;;;;;;2.44;67.31;101285.13;5570097;32;34374;-64
2022/03/24 03:02:00;;;;;;;41.25;18.30;;;;;;;2.44;68.25;101281.66;5570118;32;34015;-64
2022/03/24 03:05:03;;;;;;;43.72;19.15;;;;;;;2.44;68.67;101269.41;5570462;32;34017;-64
2022/03/24 03:08:07;;;;;;;45.25;18.92;;;;;;;2.42;68.99;101280.94;5556420;32;34632;-64
2022/03/24 03:11:10;;;;;;;45.65;18.98;;;;;;;2.39;68.89;101279.31;5569965;32;34656;-65
2022/03/24 03:14:15;;;;;;;42.53;19.12;;;;;;;2.31;69.73;101285.97;5569865;32;34601;-64
2022/03/24 03:17:17;;;;;;;45.05;19.00;;;;;;;2.27;70.38;101279.22;5569834;32;34183;-65
2022/03/24 03:20:20;;;;;;;43.65;19.30;;;;;;;2.24;70.48;101271.53;5570000;32;34577;-65
2022/03/24 03:23:23;;;;;;;48.53;19.23;;;;;;;2.27;71.05;101263.53;5569769;32;33944;-65
2022/03/24 03:26:26;;;;;;;44.67;18.77;;;;;;;2.26;70.91;101265.31;5569795;32;34113;-65
2022/03/24 03:29:28;;;;;;;49.15;19.45;;;;;;;2.24;70.54;101261.06;5569625;32;34060;-64
2022/03/24 03:32:31;;;;;;;52.72;19.08;;;;;;;2.19;70.42;101256.97;5569632;32;34039;-64
2022/03/24 03:35:34;;;;;;;54.53;19.55;;;;;;;2.16;70.92;101264.16;5569969;32;34043;-64
2022/03/24 03:38:37;;;;;;;51.33;18.45;;;;;;;2.16;71.10;101254.53;5569681;32;33947;-64
2022/03/24 03:41:40;;;;;;;46.53;19.65;;;;;;;2.10;70.87;101254.06;5569631;32;35294;-65
2022/03/24 03:44:43;;;;;;;53.67;19.87;;;;;;;2.06;71.38;101247.34;5569592;32;34635;-64
2022/03/24 03:47:46;;;;;;;52.50;18.85;;;;;;;2.05;71.16;101254.34;5555833;32;34897;-64
2022/03/24 03:50:48;;;;;;;46.25;20.80;;;;;;;2.02;70.87;101251.91;5569486;32;35267;-64
2022/03/24 03:53:51;;;;;;;43.97;19.00;;;;;;;1.96;70.26;101240.97;5569831;32;33969;-65
2022/03/24 03:56:54;;;;;;;48.75;18.35;;;;;;;1.94;70.41;101251.50;5569447;32;34578;-65
2022/03/24 04:00:52;;;;;;;47.17;18.42;;;;;;;2.03;71.90;101256.19;5569334;32;34005;-64
2022/03/24 04:03:20;;;;;;;43.33;19.52;;;;;;;2.10;71.66;101260.13;5569193;32;34238;-65
2022/03/24 04:06:24;;;;;;;51.37;19.33;;;;;;;2.27;71.74;101255.66;5569587;32;34265;-64
2022/03/24 04:09:27;;;;;;;51.00;19.37;;;;;;;2.13;71.64;101256.50;5569225;32;33842;-64
2022/03/24 04:12:30;;;;;;;52.08;20.23;;;;;;;2.06;71.84;101255.19;5569106;32;34728;-64
2022/03/24 04:15:34;;;;;;;47.78;19.58;;;;;;;2.01;72.09;101255.47;5569047;32;33888;-64
2022/03/24 04:18:39;;;;;;;41.60;18.77;;;;;;;1.97;72.45;101247.88;5568905;32;35500;-64
2022/03/24 04:21:42;;;;;;;38.75;19.10;;;;;;;1.93;72.41;101251.63;5569028;32;34616;-65
2022/03/24 04:24:45;;;;;;;41.58;19.45;;;;;;;1.88;72.47;101249.28;5568786;32;33528;-64
2022/03/24 04:27:49;;;;;;;50.88;20.17;;;;;;;1.84;72.66;101242.53;5557420;32;33961;-65
2022/03/24 04:30:51;;;;;;;50.78;19.62;;;;;;;1.91;71.98;101233.41;5571317;32;33993;-65
2022/03/24 04:33:55;;;;;;;58.92;22.87;;;;;;;1.84;72.04;101228.62;5557688;32;34011;-64
2022/03/24 04:36:57;;;;;;;50.50;22.77;;;;;;;1.85;70.92;101238.13;5571350;32;33915;-64
2022/03/24 04:40:00;;;;;;;51.17;23.35;;;;;;;2.00;70.68;101230.22;5571388;32;33852;-65
2022/03/24 04:43:04;;;;;;;60.55;22.58;;;;;;;2.12;69.40;101233.87;5571239;32;33936;-64
2022/03/24 04:46:07;;;;;;;56.72;22.60;;;;;;;2.04;69.67;101236.94;5571659;32;33995;-65
2022/03/24 04:49:09;;;;;;;59.42;22.62;;;;;;;2.00;70.91;101232.84;5571097;32;34569;-64
2022/03/24 04:52:12;;;;;;;52.55;21.73;;;;;;;1.97;69.93;101238.28;5557523;32;34038;-65
2022/03/24 04:55:15;;;;;;;53.72;23.85;;;;;;;2.03;68.98;101239.69;5571107;32;34596;-65
2022/03/24 04:58:19;;;;;;;61.28;22.83;;;;;;;1.99;67.83;101235.53;5571178;32;34597;-65
2022/03/24 05:01:21;;;;;;;51.75;21.75;;;;;;;1.97;67.97;101237.41;5571439;32;34419;-65
2022/03/24 05:04:24;;;;;;;56.42;22.80;;;;;;;1.96;68.11;101239.19;5571374;32;32496;-65
2022/03/24 05:07:27;;;;;;;48.28;23.05;;;;;;;2.07;67.19;101246.41;5571004;32;34374;-65
2022/03/24 05:10:30;;;;;;;56.72;22.77;;;;;;;2.08;67.00;101246.28;5571125;32;33949;-65
2022/03/24 05:13:32;;;;;;;51.60;22.02;;;;;;;2.14;66.53;101242.47;5571253;32;34022;-65
2022/03/24 05:16:35;;;;;;;55.80;22.02;;;;;;;2.23;66.42;101236.66;5557355;32;34017;-65
2022/03/24 05:19:44;;;;;;;57.05;22.45;;;;;;;2.36;66.01;101240.25;5570743;32;34182;-65
2022/03/24 05:22:46;;;;;;;51.15;22.60;;;;;;;2.49;65.41;101243.78;5570963;32;34659;-65
2022/03/24 05:25:49;;;;;;;62.10;21.40;;;;;;;2.60;64.72;101238.72;5571181;32;34666;-65
2022/03/24 05:28:53;;;;;;;47.95;22.98;;;;;;;2.73;64.12;101230.91;5570807;32;33987;-65
2022/03/24 05:31:55;;;;;;;54.92;22.23;;;;;;;2.88;63.61;101224.72;5570701;32;34031;-65
2022/03/24 05:34:58;;;;;;;50.70;22.30;;;;;;;3.01;63.41;101227.38;5570666;32;34424;-65
2022/03/24 05:38:03;;;;;;;54.90;23.77;;;;;;;3.16;63.19;101225.53;5570216;32;34010;-65
2022/03/24 05:41:05;;;;;;;53.78;22.62;;;;;;;3.30;62.74;101228.94;5570697;32;34093;-65
2022/03/24 05:44:09;;;;;;;50.60;21.60;;;;;;;3.43;62.18;101227.22;5570592;32;34864;-65
2022/03/24 05:47:20;;;;;;;60.55;22.67;;;;;;;3.59;61.34;101221.75;5570871;32;33968;-65
2022/03/24 05:50:24;;;;;;;58.15;23.62;;;;;;;3.75;60.86;101224.22;5570397;32;34486;-65
2022/03/24 05:53:33;;;;;;;56.25;22.52;;;;;;;3.91;60.62;101216.97;5570824;32;35274;-65
2022/03/24 05:56:35;;;;;;;50.38;22.25;;;;;;;4.05;59.85;101222.12;5570308;32;34627;-65
2022/03/24 05:59:38;;;;;;;55.58;22.92;;;;;;;4.19;59.27;101211.50;5570446;32;34025;-65
2022/03/24 06:02:43;;;;;;;56.80;23.38;;;;;;;4.35;58.83;101216.53;5570694;32;33966;-63
2022/03/24 06:05:48;;;;;;;59.05;21.00;;;;;;;4.51;58.88;101211.00;5557042;32;33911;-65
2022/03/24 06:08:52;;;;;;;47.33;21.87;;;;;;;4.67;58.44;101220.34;5570376;32;33879;-63
2022/03/24 06:11:56;;;;;;;57.05;21.92;;;;;;;4.89;57.33;101214.38;5570421;32;34578;-63
2022/03/24 06:14:59;;;;;;;71.47;22.02;;;;;;;5.08;56.74;101211.25;5570415;32;34013;-64
2022/03/24 06:18:02;;;;;;;67.12;24.10;;;;;;;5.32;56.10;101209.47;5570391;32;34097;-64
2022/03/24 06:21:05;;;;;;;48.42;22.23;;;;;;;5.59;55.36;101210.00;5570419;32;34119;-64
2022/03/24 06:24:08;;;;;;;56.72;23.92;;;;;;;5.83;54.55;101212.56;5569917;32;34766;-64
2022/03/24 06:27:12;;;;;;;61.72;24.30;;;;;;;6.15;54.33;101204.03;5569676;32;34139;-64
2022/03/24 06:30:14;;;;;;;65.75;24.42;;;;;;;6.81;52.38;101205.75;5569849;32;33984;-63
2022/03/24 06:33:18;;;;;;;55.10;27.23;;;;;;;7.64;50.00;101204.13;5570185;32;34109;-63
2022/03/24 06:36:21;;;;;;;67.75;27.35;;;;;;;8.55;48.05;101213.91;5556124;32;34055;-63
2022/03/24 06:39:24;;;;;;;60.92;26.52;;;;;;;9.40;45.45;101214.16;5570039;32;35157;-63
2022/03/24 06:42:27;;;;;;;54.78;26.00;;;;;;;10.46;43.14;101210.31;5569921;32;34405;-65
2022/03/24 06:45:30;;;;;;;70.07;28.75;;;;;;;11.42;41.07;101211.53;5569684;32;33909;-64
2022/03/24 06:48:33;;;;;;;76.47;28.27;;;;;;;11.61;39.03;101210.50;5569418;32;34266;-65
2022/03/24 06:51:36;;;;;;;64.32;26.62;;;;;;;11.99;39.58;101201.34;5569853;32;34233;-65
2022/03/24 06:54:39;;;;;;;55.63;28.27;;;;;;;12.79;38.14;101192.87;5569572;32;34346;-65
2022/03/24 06:57:43;;;;;;;66.05;25.98;;;;;;;14.28;34.48;101206.69;5569053;32;34086;-65
2022/03/24 07:00:46;;;;;;;54.95;24.85;;;;;;;15.41;32.06;101202.63;5569333;32;34697;-65
2022/03/24 07:03:49;;;;;;;54.75;23.75;;;;;;;15.38;30.91;101202.97;5569166;32;34439;-65
2022/03/24 07:06:51;;;;;;;55.92;23.27;;;;;;;14.05;32.58;101195.09;5569314;32;34613;-64
2022/03/24 07:09:54;;;;;;;45.42;22.75;;;;;;;14.15;32.43;101193.06;5569317;32;34006;-65
2022/03/24 07:13:00;;;;;;;49.88;22.75;;;;;;;14.69;32.18;101191.41;5569580;32;33902;-65
2022/03/24 07:16:03;;;;;;;51.00;21.98;;;;;;;16.46;29.73;101184.69;5568991;32;34327;-65
2022/03/24 07:19:06;;;;;;;52.42;21.60;;;;;;;17.51;27.55;101182.34;5569443;32;34689;-65
2022/03/24 07:22:09;;;;;;;42.70;21.02;;;;;;;16.35;29.08;101187.84;5568962;32;34109;-65
2022/03/24 07:25:12;;;;;;;55.53;24.70;;;;;;;17.63;27.01;101183.50;5569257;32;34721;-65
2022/03/24 07:28:15;;;;;;;38.25;20.40;;;;;;;18.32;25.84;101179.03;5569175;31;34583;-65
2022/03/24 07:31:19;;;;;;;49.45;21.70;;;;;;;17.32;26.12;101176.63;5569356;32;35246;-65
2022/03/24 07:34:23;;;;;;;63.65;21.92;;;;;;;17.28;26.73;101174.53;5569407;32;34543;-64
2022/03/24 07:37:28;;;;;;;45.08;19.70;;;;;;;17.82;26.06;101174.78;5569331;32;33941;-65
2022/03/24 07:40:31;;;;;;;39.97;17.83;;;;;;;19.12;24.40;101179.13;5555614;32;34124;-65
2022/03/24 07:43:34;;;;;;;30.17;16.85;;;;;;;21.13;22.28;101171.09;5569226;32;34558;-65
2022/03/24 07:46:37;;;;;;;33.35;16.80;;;;;;;22.50;19.46;101168.16;5569272;32;35271;-65
2022/03/24 07:49:39;;;;;;;25.70;14.57;;;;;;;22.23;19.65;101160.56;5569180;32;33934;-65
2022/03/24 07:52:42;;;;;;;26.73;14.10;;;;;;;22.58;18.46;101169.72;5569188;32;34413;-65
2022/03/24 07:55:46;;;;;;;29.05;13.45;;;;;;;22.72;18.15;101173.09;5569333;32;34060;-65
2022/03/24 07:58:49;;;;;;;23.80;12.30;;;;;;;22.83;18.19;101164.22;5569240;32;34156;-65
2022/03/24 08:01:52;;;;;;;28.00;12.37;;;;;;;23.19;17.64;101166.00;5568049;32;34567;-65
2022/03/24 08:04:55;;;;;;;25.98;11.23;;;;;;;23.38;17.10;101170.28;5568996;32;34041;-65
2022/03/24 08:07:57;;;;;;;20.85;11.65;;;;;;;23.10;16.64;101170.06;5569018;32;33851;-65
2022/03/24 08:11:01;;;;;;;18.55;10.68;;;;;;;23.70;16.85;101170.81;5569079;32;34096;-65
2022/03/24 08:14:03;;;;;;;17.87;9.80;;;;;;;24.54;15.57;101170.28;5568835;32;34363;-65
2022/03/24 08:17:06;;;;;;;20.90;9.30;;;;;;;25.08;14.31;101163.44;5568794;32;34479;-64
2022/03/24 08:20:10;;;;;;;15.65;9.15;;;;;;;26.51;13.40;101167.28;5569100;32;34451;-65
2022/03/24 08:23:13;;;;;;;13.05;8.75;;;;;;;24.84;14.03;101156.44;5568381;32;34149;-66
2022/03/24 08:26:16;;;;;;;21.02;8.43;;;;;;;27.49;12.26;101155.28;5568482;32;34278;-66
2022/03/24 08:29:19;;;;;;;15.07;8.48;;;;;;;25.54;13.68;101158.81;5568224;32;33891;-65
2022/03/24 08:32:21;;;;;;;16.58;7.50;;;;;;;26.13;12.87;101154.53;5567842;32;34193;-65
2022/03/24 08:35:25;;;;;;;17.92;7.40;;;;;;;25.55;12.79;101157.75;5568513;32;34087;-65
2022/03/24 08:38:28;;;;;;;17.95;7.40;;;;;;;25.66;13.29;101153.31;5568477;32;34029;-65
2022/03/24 08:41:31;;;;;;;13.38;6.60;;;;;;;25.31;12.99;101150.81;5555162;32;33943;-67
2022/03/24 08:44:33;;;;;;;12.63;7.05;;;;;;;26.45;12.09;101162.03;5568268;32;34323;-67
2022/03/24 08:47:36;;;;;;;16.30;6.40;;;;;;;25.94;11.87;101154.03;5568274;32;34666;-66
2022/03/24 08:50:39;;;;;;;14.43;6.90;;;;;;;23.47;13.29;101160.78;5568145;32;33937;-66
2022/03/24 08:53:42;;;;;;;18.20;7.70;;;;;;;23.20;13.97;101157.62;5568041;32;34783;-66
2022/03/24 08:56:44;;;;;;;13.85;7.12;;;;;;;22.88;14.15;101156.25;5568296;32;34416;-65
2022/03/24 08:59:48;;;;;;;12.00;7.35;;;;;;;22.61;14.68;101152.22;5568007;32;33956;-65
2022/03/24 09:02:55;;;;;;;10.77;7.30;;;;;;;21.13;15.41;101152.19;5567899;32;34689;-65
2022/03/24 09:05:58;;;;;;;17.12;7.60;;;;;;;19.79;16.94;101145.03;5568117;32;34651;-65
2022/03/24 09:09:01;;;;;;;13.05;7.30;;;;;;;19.05;17.28;101153.25;5568031;32;34415;-65
2022/03/24 09:12:04;;;;;;;15.25;7.22;;;;;;;18.82;18.30;101150.94;5569045;32;33907;-66
2022/03/24 09:15:08;;;;;;;13.75;7.18;;;;;;;18.62;17.82;101152.72;5556951;32;33981;-66
2022/03/24 09:18:12;;;;;;;13.70;6.95;;;;;;;18.30;18.31;101139.97;5570068;32;34013;-66
2022/03/24 09:21:16;;;;;;;19.70;6.50;;;;;;;17.99;18.63;101146.63;5570535;32;33937;-65
2022/03/24 09:24:20;;;;;;;11.52;6.78;;;;;;;17.77;18.76;101148.53;5557387;32;34009;-65
2022/03/24 09:27:23;;;;;;;16.52;6.60;;;;;;;17.88;19.05;101151.69;5570608;32;34112;-65
2022/03/24 09:30:26;;;;;;;11.68;6.57;;;;;;;17.86;18.71;101151.06;5570404;32;33908;-65
2022/03/24 09:33:28;;;;;;;16.02;7.03;;;;;;;18.06;18.96;101154.69;5570912;32;34745;-65
2022/03/24 09:36:31;;;;;;;13.80;6.93;;;;;;;18.21;18.63;101152.72;5570413;32;34750;-65
2022/03/24 09:39:35;;;;;;;15.27;7.43;;;;;;;18.19;18.58;101150.25;5556810;32;35189;-65
2022/03/24 09:42:39;;;;;;;14.07;6.62;;;;;;;18.16;18.98;101150.62;5570546;32;34759;-65
2022/03/24 09:45:42;;;;;;;10.50;6.50;;;;;;;17.91;18.59;101151.31;5556719;32;34023;-63
2022/03/24 09:48:46;;;;;;;13.38;6.65;;;;;;;17.83;18.75;101149.59;5570046;32;34671;-65
2022/03/24 09:51:49;;;;;;;19.12;7.05;;;;;;;18.10;18.57;101147.91;5570442;32;34066;-64
2022/03/24 09:54:53;;;;;;;17.10;6.95;;;;;;;18.20;18.56;101140.34;5570271;32;34155;-64
2022/03/24 09:57:57;;;;;;;18.30;7.47;;;;;;;18.14;18.58;101152.69;5570450;32;33948;-64
2022/03/24 10:01:17;;;;;;;14.43;7.07;;;;;;;18.04;18.62;101138.81;5570342;32;34077;-67
2022/03/24 10:04:21;;;;;;;18.35;7.28;;;;;;;18.02;20.14;101146.22;5570384;32;33891;-66
2022/03/24 10:07:28;;;;;;;20.42;7.05;;;;;;;18.12;19.09;101132.41;5570212;32;34550;-65
2022/03/24 10:10:37;;;;;;;20.85;6.85;;;;;;;18.13;19.37;101140.28;5570371;32;34423;-64
2022/03/24 10:13:41;;;;;;;18.17;6.53;;;;;;;18.23;18.21;101139.94;5570210;32;34025;-65
2022/03/24 10:16:45;;;;;;;15.23;6.65;;;;;;;18.41;18.77;101134.84;5556701;32;34097;-65
2022/03/24 10:20:05;;;;;;;12.40;6.43;;;;;;;18.37;19.13;101130.06;5570183;32;34650;-65
2022/03/24 10:23:10;;;;;;;15.38;5.93;;;;;;;18.56;18.85;101130.19;5569291;32;34215;-65
2022/03/24 10:26:13;;;;;;;15.77;6.65;;;;;;;18.86;18.12;101124.47;5569717;32;35415;-64
2022/03/24 10:29:19;;;;;;;12.07;7.10;;;;;;;19.03;17.71;101123.88;5561672;32;306935;-65
2022/03/24 10:32:32;;;;;;;12.30;6.75;;;;;;;18.90;19.00;101131.09;5569598;32;34068;-65
2022/03/24 10:35:35;;;;;;;11.32;6.25;;;;;;;18.82;18.12;101126.75;5569802;32;34628;-65
2022/03/24 10:38:41;;;;;;;20.12;6.60;;;;;;;19.09;17.77;101123.06;5569919;32;34620;-65
2022/03/24 10:41:44;;;;;;;24.95;6.78;;;;;;;19.29;17.71;101117.69;5569804;32;34380;-65
2022/03/24 10:45:06;;;;;;;10.95;5.85;;;;;;;19.07;17.64;101119.72;5569802;32;34156;-65
2022/03/24 10:48:09;;;;;;;15.88;7.10;;;;;;;19.27;18.95;101114.38;5569676;32;34569;-67
2022/03/24 10:51:11;;;;;;;11.20;6.68;;;;;;;19.46;17.55;101116.25;5555757;32;34288;-65
2022/03/24 10:54:25;;;;;;;20.02;8.15;;;;;;;19.44;17.62;101107.59;5569922;32;34688;-64
2022/03/24 10:57:28;;;;;;;14.02;7.80;;;;;;;19.58;18.06;101112.94;5560693;32;34848;-64
2022/03/24 11:00:32;;;;;;;10.40;7.80;;;;;;;19.95;17.57;101115.78;5574765;32;34473;-64
2022/03/24 11:03:35;;;;;;;15.85;7.90;;;;;;;21.65;16.46;101115.84;5571826;32;33926;-64
2022/03/24 11:06:51;;;;;;;18.90;8.40;;;;;;;24.17;14.54;101101.13;5572554;32;34017;-65
2022/03/24 11:09:54;;;;;;;14.93;8.23;;;;;;;26.58;12.62;101102.59;5569647;32;34701;-66
2022/03/24 11:13:00;;;;;;;15.88;7.53;;;;;;;26.85;12.37;101107.22;5569669;32;34137;-66
2022/03/24 11:16:03;;;;;;;31.95;9.00;;;;;;;28.04;11.75;101096.69;5569510;32;33930;-66
2022/03/24 11:19:17;;;;;;;14.80;8.00;;;;;;;27.98;11.88;101098.56;5569656;32;34085;-66
2022/03/24 11:22:20;;;;;;;16.65;8.15;;;;;;;27.59;11.77;101098.06;5556054;32;34569;-66
2022/03/24 11:25:25;;;;;;;14.85;7.78;;;;;;;25.95;12.78;101086.84;5569047;32;34068;-66
2022/03/24 11:28:28;;;;;;;13.48;7.25;;;;;;;26.20;12.56;101079.00;5569145;31;34280;-66
2022/03/24 11:31:32;;;;;;;16.40;7.43;;;;;;;28.86;10.73;101084.97;5569276;32;34602;-66
2022/03/24 11:34:35;;;;;;;18.77;7.30;;;;;;;27.90;10.90;101076.44;5568516;32;34768;-67
2022/03/24 11:37:39;;;;;;;21.65;7.12;;;;;;;28.49;10.46;101061.41;5568116;32;34215;-66
2022/03/24 11:40:42;;;;;;;15.88;7.07;;;;;;;28.33;10.59;101070.63;5569408;32;34736;-67
2022/03/24 11:43:50;;;;;;;19.35;7.70;;;;;;;28.81;10.50;101069.38;5569483;32;34340;-66
2022/03/24 11:47:02;;;;;;;13.15;7.68;;;;;;;28.51;10.87;101064.66;5555696;32;34319;-67
2022/03/24 11:50:09;;;;;;;11.70;8.00;;;;;;;28.21;10.94;101059.16;5568959;32;34688;-67
2022/03/24 11:53:27;;;;;;;30.12;8.48;;;;;;;29.00;10.63;101047.81;5569047;32;32471;-66
2022/03/24 11:56:33;;;;;;;13.13;7.55;;;;;;;28.42;10.60;101046.34;5568926;32;34591;-67
2022/03/24 11:59:35;;;;;;;17.05;8.00;;;;;;;28.16;11.25;101050.94;5569226;32;34924;-67
2022/03/24 12:02:45;;;;;;;15.20;7.53;;;;;;;28.95;10.53;101045.91;5569137;32;33932;-68
2022/03/24 12:05:55;;;;;;;13.88;7.87;;;;;;;29.35;9.98;101039.63;5568792;32;33923;-67
2022/03/24 12:09:04;;;;;;;12.37;7.35;;;;;;;30.10;9.84;101040.50;5569246;32;34564;-67
2022/03/24 12:12:10;;;;;;;18.67;7.37;;;;;;;30.89;9.89;101042.16;5555709;32;34019;-67
2022/03/24 12:15:22;;;;;;;11.05;7.25;;;;;;;31.56;8.92;101026.78;5568854;32;33915;-67
2022/03/24 12:18:39;;;;;;;8.45;5.43;;;;;;;32.53;8.49;101034.59;5568651;32;34715;-68
2022/03/24 12:21:42;;;;;;;12.82;6.43;;;;;;;30.21;9.08;101027.56;5568598;32;34263;-67
2022/03/24 12:24:45;;;;;;;10.02;6.37;;;;;;;29.09;10.35;101023.50;5568539;32;34632;-68
2022/03/24 12:28:09;;;;;;;12.48;6.37;;;;;;;30.03;9.68;101039.16;5568728;32;34152;-67
2022/03/24 12:31:15;;;;;;;12.98;6.57;;;;;;;29.50;9.71;101027.00;5568428;32;34750;-67
2022/03/24 12:34:18;;;;;;;12.20;6.57;;;;;;;29.80;9.57;101030.47;5568092;32;33882;-66
2022/03/24 12:37:26;;;;;;;15.52;6.00;;;;;;;29.24;10.17;101020.78;5568618;32;34258;-67
2022/03/24 12:40:29;;;;;;;18.67;6.70;;;;;;;28.72;10.55;101021.03;5568270;32;34632;-67
2022/03/24 12:43:52;;;;;;;13.75;5.62;;;;;;;29.33;10.06;101016.41;5568245;32;35192;-67
2022/03/24 12:46:59;;;;;;;10.70;7.00;;;;;;;30.44;9.49;101018.66;5555357;32;34604;-65
2022/03/24 12:50:29;;;;;;;11.68;6.90;;;;;;;29.15;10.61;101009.56;5570922;32;33976;-66
2022/03/24 12:53:51;;;;;;;15.23;7.28;;;;;;;30.08;10.07;101012.59;5563374;32;33989;-66
2022/03/24 12:57:19;;;;;;;9.68;6.70;;;;;;;28.39;11.08;101008.69;5570696;32;34623;-67
2022/03/24 13:00:25;;;;;;;13.60;6.93;;;;;;;28.46;10.98;100988.25;5570833;32;33947;-67
2022/03/24 13:03:28;;;;;;;8.68;5.87;;;;;;;29.27;10.61;101001.91;5570829;32;34667;-67
2022/03/24 13:06:33;;;;;;;11.70;6.35;;;;;;;29.82;9.87;100986.44;5570999;32;34351;-66
2022/03/24 13:09:36;;;;;;;10.50;5.30;;;;;;;29.96;9.73;100987.50;5571237;32;33920;-66
2022/03/24 13:12:42;;;;;;;10.25;5.80;;;;;;;29.71;9.21;101004.81;5570830;32;34352;-67
2022/03/24 13:15:45;;;;;;;9.80;5.12;;;;;;;29.45;9.35;100994.22;5557369;32;34155;-67
2022/03/24 13:18:55;;;;;;;11.12;5.60;;;;;;;30.83;8.99;100996.75;5570697;32;33948;-67
2022/03/24 13:22:22;;;;;;;8.20;5.10;;;;;;;31.68;8.82;100993.44;5570867;32;34420;-66
2022/03/24 13:25:26;;;;;;;7.90;5.05;;;;;;;30.05;9.22;100979.50;5571161;32;33895;-67
2022/03/24 13:28:31;;;;;;;9.80;5.32;;;;;;;29.36;9.28;100977.56;5570954;32;34032;-66
2022/03/24 13:31:33;;;;;;;10.73;5.05;;;;;;;29.59;9.40;100978.84;5570508;32;33994;-67
2022/03/24 13:34:37;;;;;;;10.60;5.28;;;;;;;30.62;9.17;100976.94;5570964;32;34186;-66
2022/03/24 13:37:41;;;;;;;9.98;5.25;;;;;;;32.40;8.33;100964.72;5570625;32;34040;-67
2022/03/24 13:40:49;;;;;;;12.00;5.25;;;;;;;34.93;7.15;100962.22;5557236;32;34051;-67
2022/03/24 13:43:54;;;;;;;9.53;4.60;;;;;;;34.33;7.20;100965.38;5557394;32;34666;-68
2022/03/24 13:46:57;;;;;;;5.80;4.15;;;;;;;32.36;7.90;100958.19;5570807;32;34005;-67
2022/03/24 13:50:03;;;;;;;6.55;3.97;;;;;;;31.71;8.14;100946.25;5570708;32;34029;-66
2022/03/24 13:53:18;;;;;;;5.68;3.53;;;;;;;33.27;7.79;100950.31;5557079;32;34065;-67
2022/03/24 13:56:21;;;;;;;17.75;4.47;;;;;;;31.66;7.96;100949.84;5570389;32;35282;-67
2022/03/24 13:59:32;;;;;;;9.70;4.07;;;;;;;29.60;9.08;100934.84;5569581;32;34414;-66
2022/03/24 14:02:35;;;;;;;17.25;4.93;;;;;;;28.15;10.22;100925.72;5570375;32;33985;-67
2022/03/24 14:06:11;;;;;;;8.52;4.53;;;;;;;30.37;8.86;100932.47;5569951;32;34284;-65
2022/03/24 14:09:23;;;;;;;9.15;4.50;;;;;;;29.35;9.16;100932.19;5570263;32;33782;-67